Time;durP1;ratioP1;P1;durP2;ratioP2;P2;SDS_P1;SDS_P2;PMS_P1;PMS_P2;Temp;Humidity;BMP_temperature;BMP_pressure;BME280_temperature;BME280_humidity;BME280_pressure;Samples;Min_cycle;Max_cycle;Signal;HPM_P1;HPM_P2
2024/01/21 00:01:15;;;;;;;11.18;4.90;;;1.00;84.30;;;;;;9179276;19;20633;-71
2024/01/21 00:04:25;;;;;;;8.07;4.28;;;1.00;84.10;;;;;;9176027;19;20014;-71
2024/01/21 00:07:31;;;;;;;16.25;4.90;;;1.00;84.10;;;;;;9177483;19;20022;-71
2024/01/21 00:10:39;;;;;;;11.88;5.25;;;1.00;84.10;;;;;;9174584;19;20014;-71
2024/01/21 00:13:50;;;;;;;8.32;4.90;;;1.10;84.10;;;;;;9178916;19;20554;-71
2024/01/21 00:16:57;;;;;;;8.23;4.00;;;1.10;84.10;;;;;;9176835;19;20356;-72
2024/01/21 00:20:06;;;;;;;7.20;3.67;;;1.10;84.10;;;;;;9178998;19;20014;-71
2024/01/21 00:23:14;;;;;;;7.93;4.30;;;1.10;83.80;;;;;;9179054;19;20034;-71
2024/01/21 00:26:20;;;;;;;6.70;3.60;;;1.10;83.90;;;;;;9175529;19;20348;-71
2024/01/21 00:29:30;;;;;;;6.85;3.30;;;1.10;83.60;;;;;;9178421;19;20019;-71
2024/01/21 00:32:36;;;;;;;7.97;4.07;;;1.20;83.80;;;;;;9178270;19;20035;-71
2024/01/21 00:35:46;;;;;;;4.90;3.20;;;1.20;83.80;;;;;;9177593;19;20029;-71
2024/01/21 00:38:51;;;;;;;6.32;3.40;;;1.20;83.90;;;;;;9176811;19;20018;-71
2024/01/21 00:41:59;;;;;;;7.90;3.42;;;1.20;83.70;;;;;;9177916;19;20477;-71
2024/01/21 00:45:12;;;;;;;6.53;3.05;;;1.20;83.90;;;;;;9173405;19;20170;-71
2024/01/21 00:48:20;;;;;;;5.38;3.17;;;1.30;83.70;;;;;;9175908;19;20019;-71
2024/01/21 00:51:28;;;;;;;9.32;2.90;;;1.20;83.30;;;;;;9177639;19;20018;-68
2024/01/21 00:54:36;;;;;;;5.65;2.60;;;1.30;83.10;;;;;;9177737;19;20018;-69
2024/01/21 00:57:42;;;;;;;6.05;3.05;;;1.40;83.70;;;;;;9174753;19;20047;-69
2024/01/21 01:00:49;;;;;;;6.97;2.92;;;1.40;83.20;;;;;;9174520;19;20115;-71
2024/01/21 01:03:55;;;;;;;6.28;3.00;;;1.40;83.30;;;;;;9173933;19;20821;-70
2024/01/21 01:07:08;;;;;;;6.07;2.70;;;1.40;83.30;;;;;;9172901;19;20361;-69
2024/01/21 01:10:15;;;;;;;8.23;3.00;;;1.50;83.00;;;;;;9172723;19;20014;-69
2024/01/21 01:13:23;;;;;;;4.82;2.20;;;1.50;83.20;;;;;;9176131;19;20044;-69
2024/01/21 01:16:28;;;;;;;4.45;2.50;;;1.50;83.10;;;;;;9174728;19;20033;-68
2024/01/21 01:19:36;;;;;;;5.57;2.53;;;1.50;83.10;;;;;;9175605;19;20626;-69
2024/01/21 01:22:52;;;;;;;5.00;2.15;;;1.60;83.00;;;;;;9176555;19;20026;-69
2024/01/21 01:26:00;;;;;;;3.47;2.15;;;1.60;82.80;;;;;;9173615;19;20389;-68
2024/01/21 01:29:06;;;;;;;6.85;2.80;;;1.60;82.80;;;;;;9173704;19;20484;-68
2024/01/21 01:32:14;;;;;;;3.60;2.30;;;1.60;82.70;;;;;;9176091;19;20018;-69
2024/01/21 01:35:19;;;;;;;3.88;2.47;;;1.70;82.80;;;;;;9175378;19;20016;-68
2024/01/21 01:38:30;;;;;;;2.58;1.98;;;1.70;82.30;;;;;;9174830;19;20052;-69
2024/01/21 01:41:36;;;;;;;9.80;2.05;;;1.70;82.20;;;;;;9172590;19;20017;-68
2024/01/21 01:44:44;;;;;;;4.28;1.88;;;1.70;82.70;;;;;;9174752;19;20053;-70
2024/01/21 01:47:50;;;;;;;5.45;2.17;;;1.80;82.30;;;;;;9176327;19;20033;-69
2024/01/21 01:50:59;;;;;;;5.35;2.25;;;1.70;82.20;;;;;;9174973;19;20342;-69
2024/01/21 01:54:08;;;;;;;3.97;2.17;;;1.80;82.30;;;;;;9175714;19;20049;-71
2024/01/21 01:57:17;;;;;;;3.67;2.15;;;1.80;82.50;;;;;;9173277;19;20483;-72
2024/01/21 02:00:24;;;;;;;7.20;2.38;;;1.80;82.30;;;;;;9174579;19;20086;-70
2024/01/21 02:03:32;;;;;;;6.05;2.20;;;2.00;82.40;;;;;;9175071;19;20129;-69
2024/01/21 02:06:40;;;;;;;3.85;1.90;;;1.80;82.30;;;;;;9170860;19;20022;-69
2024/01/21 02:09:50;;;;;;;4.82;2.28;;;1.90;82.20;;;;;;9170800;19;20043;-69
2024/01/21 02:12:56;;;;;;;5.03;2.17;;;1.90;82.00;;;;;;9178273;19;20014;-68
2024/01/21 02:16:05;;;;;;;7.75;2.03;;;1.90;82.00;;;;;;9183330;19;20017;-69
2024/01/21 02:19:26;;;;;;;3.53;2.05;;;1.90;81.80;;;;;;9183190;19;20357;-74
2024/01/21 02:22:37;;;;;;;3.38;1.95;;;1.90;81.40;;;;;;9182963;19;20014;-70
2024/01/21 02:25:45;;;;;;;5.72;2.28;;;1.90;81.40;;;;;;9180738;19;20141;-71
2024/01/21 02:28:52;;;;;;;4.97;1.95;;;1.90;81.50;;;;;;9183328;19;20381;-68
2024/01/21 02:31:59;;;;;;;3.92;2.25;;;1.90;81.60;;;;;;9182391;19;20009;-69
2024/01/21 02:35:08;;;;;;;3.95;1.95;;;2.00;81.90;;;;;;9183341;19;20014;-69
2024/01/21 02:38:13;;;;;;;3.03;1.95;;;1.90;81.40;;;;;;9179359;19;20018;-68
2024/01/21 02:41:24;;;;;;;3.03;2.00;;;2.00;81.90;;;;;;9180132;19;20033;-70
2024/01/21 02:44:29;;;;;;;4.40;2.15;;;1.90;81.40;;;;;;9181835;19;20023;-69
2024/01/21 02:47:37;;;;;;;3.22;1.90;;;1.90;81.60;;;;;;9182306;19;20361;-69
2024/01/21 02:50:43;;;;;;;5.00;2.20;;;2.00;81.20;;;;;;9182117;19;20018;-71
2024/01/21 02:53:50;;;;;;;3.05;1.85;;;1.90;81.40;;;;;;9181390;19;20018;-69
2024/01/21 02:56:59;;;;;;;4.78;1.88;;;1.90;80.90;;;;;;9182085;19;20360;-70
2024/01/21 03:00:08;;;;;;;3.03;1.80;;;2.00;80.80;;;;;;9181884;19;20014;-67
2024/01/21 03:03:13;;;;;;;3.63;2.00;;;2.00;80.70;;;;;;9179909;19;20018;-70
2024/01/21 03:06:21;;;;;;;8.23;2.53;;;2.00;80.60;;;;;;9180600;19;20375;-68
2024/01/21 03:09:27;;;;;;;1.83;1.45;;;2.00;80.60;;;;;;9178795;19;20014;-72
2024/01/21 03:12:37;;;;;;;5.85;1.70;;;2.00;80.50;;;;;;9181320;19;20015;-69
2024/01/21 03:15:42;;;;;;;5.57;1.50;;;2.00;80.50;;;;;;9179243;19;20100;-68
2024/01/21 03:18:50;;;;;;;3.90;1.85;;;2.00;80.50;;;;;;9179242;19;20010;-71
2024/01/21 03:21:55;;;;;;;2.63;1.70;;;2.00;80.40;;;;;;9179644;19;20015;-69
2024/01/21 03:25:03;;;;;;;3.20;1.67;;;2.00;80.40;;;;;;9177576;19;20105;-69
2024/01/21 03:28:12;;;;;;;2.92;1.90;;;2.00;80.40;;;;;;9181996;19;20010;-69
2024/01/21 03:31:21;;;;;;;2.65;1.50;;;2.00;80.40;;;;;;9179798;19;20341;-69
2024/01/21 03:34:26;;;;;;;2.40;1.63;;;2.00;80.20;;;;;;9177253;19;20587;-68
2024/01/21 03:37:34;;;;;;;3.63;1.63;;;2.00;80.30;;;;;;9180607;19;20018;-68
2024/01/21 03:40:39;;;;;;;5.28;1.75;;;2.00;80.40;;;;;;9180610;19;20010;-68
2024/01/21 03:43:49;;;;;;;2.88;1.80;;;2.00;80.20;;;;;;9180277;19;20018;-68
2024/01/21 03:46:55;;;;;;;3.47;1.80;;;2.10;80.10;;;;;;9178624;19;20014;-69
2024/01/21 03:50:03;;;;;;;2.67;1.92;;;2.10;80.60;;;;;;9178027;19;20025;-67
2024/01/21 03:53:09;;;;;;;5.88;1.55;;;2.10;80.10;;;;;;9180194;19;20015;-68
2024/01/21 03:56:20;;;;;;;1.92;1.48;;;2.10;80.60;;;;;;9177703;19;20018;-69
2024/01/21 03:59:28;;;;;;;3.60;1.45;;;2.10;79.90;;;;;;9177901;19;20035;-70
2024/01/21 04:02:36;;;;;;;2.88;1.55;;;2.10;80.00;;;;;;9178528;19;20507;-69
2024/01/21 04:05:41;;;;;;;3.47;1.77;;;2.20;79.90;;;;;;9177291;19;20359;-70
2024/01/21 04:08:49;;;;;;;3.00;1.42;;;2.20;80.10;;;;;;9177839;19;20027;-69
2024/01/21 04:11:54;;;;;;;6.95;1.67;;;2.20;80.00;;;;;;9175439;19;20010;-68
2024/01/21 04:15:08;;;;;;;4.18;2.00;;;2.20;80.20;;;;;;9177913;19;20018;-69
2024/01/21 04:18:14;;;;;;;4.43;2.00;;;2.20;79.40;;;;;;9178473;19;20135;-68
2024/01/21 04:21:22;;;;;;;4.38;2.17;;;2.40;79.80;;;;;;9179739;19;20011;-74
2024/01/21 04:24:30;;;;;;;3.58;1.98;;;2.40;79.60;;;;;;9178765;19;20044;-75
2024/01/21 04:27:38;;;;;;;3.33;1.70;;;2.40;79.20;;;;;;9175901;19;20021;-75
2024/01/21 04:30:46;;;;;;;2.67;1.80;;;2.50;79.40;;;;;;9175486;19;20324;-75
2024/01/21 04:33:54;;;;;;;3.30;2.00;;;2.50;79.50;;;;;;9178311;19;20019;-75
2024/01/21 04:37:02;;;;;;;4.95;2.90;;;2.50;79.10;;;;;;9175826;19;20040;-75
2024/01/21 04:40:11;;;;;;;4.50;1.90;;;2.50;78.90;;;;;;9177748;19;20112;-76
2024/01/21 04:43:17;;;;;;;3.75;2.25;;;2.60;79.00;;;;;;9178596;19;20752;-75
2024/01/21 04:46:27;;;;;;;6.53;2.60;;;2.60;78.80;;;;;;9176459;19;20015;-75
2024/01/21 04:49:33;;;;;;;4.97;2.05;;;2.70;78.70;;;;;;9177731;19;20098;-74
2024/01/21 04:52:40;;;;;;;3.63;1.90;;;2.70;78.70;;;;;;9178887;19;20100;-74
2024/01/21 04:55:46;;;;;;;5.55;2.60;;;2.70;78.50;;;;;;9177735;19;20113;-77
2024/01/21 04:58:54;;;;;;;4.18;2.10;;;2.80;78.90;;;;;;9176374;19;20023;-74
2024/01/21 05:02:04;;;;;;;2.72;1.98;;;2.70;78.40;;;;;;9176801;19;20018;-75
2024/01/21 05:05:12;;;;;;;5.22;2.35;;;2.80;78.70;;;;;;9176643;19;20010;-76
2024/01/21 05:08:18;;;;;;;5.18;2.40;;;2.70;78.40;;;;;;9174932;19;20010;-76
2024/01/21 05:11:25;;;;;;;5.80;2.80;;;2.80;78.40;;;;;;9172330;19;20021;-74
2024/01/21 05:14:31;;;;;;;4.20;2.55;;;2.80;78.30;;;;;;9176679;19;20018;-74
2024/01/21 05:17:41;;;;;;;8.57;2.30;;;2.80;78.50;;;;;;9176252;19;20025;-77
2024/01/21 05:20:47;;;;;;;5.05;2.20;;;2.70;78.30;;;;;;9176803;19;20036;-75
2024/01/21 05:23:55;;;;;;;4.30;2.20;;;2.80;78.40;;;;;;9174580;19;20014;-77
2024/01/21 05:27:00;;;;;;;4.32;2.60;;;2.80;78.30;;;;;;9172518;19;20026;-75
2024/01/21 05:30:11;;;;;;;5.28;2.80;;;2.70;78.00;;;;;;9174536;19;20022;-71
2024/01/21 05:33:19;;;;;;;6.30;2.72;;;2.70;78.00;;;;;;9174864;19;20010;-72
2024/01/21 05:36:27;;;;;;;5.20;2.78;;;2.70;77.80;;;;;;9174449;19;20026;-71
2024/01/21 05:39:33;;;;;;;3.38;2.47;;;2.70;78.40;;;;;;9173118;19;20022;-72
2024/01/21 05:42:41;;;;;;;5.95;3.10;;;2.70;77.80;;;;;;9175817;19;20011;-72
2024/01/21 05:45:47;;;;;;;4.47;2.35;;;2.70;78.00;;;;;;9173459;19;20010;-71
2024/01/21 05:48:57;;;;;;;4.78;2.60;;;2.70;78.00;;;;;;9182072;19;20025;-71
2024/01/21 05:52:03;;;;;;;9.93;3.03;;;2.60;77.60;;;;;;9183324;19;20816;-71
2024/01/21 05:55:11;;;;;;;5.32;2.60;;;2.70;77.90;;;;;;9182792;19;20038;-72
2024/01/21 05:58:18;;;;;;;5.55;2.40;;;2.70;78.20;;;;;;9183064;19;20014;-72
2024/01/21 06:01:26;;;;;;;5.90;2.80;;;2.60;77.80;;;;;;9184210;19;20018;-72
2024/01/21 06:04:34;;;;;;;5.63;2.63;;;2.60;77.90;;;;;;9182676;19;20121;-71
2024/01/21 06:07:42;;;;;;;6.63;2.70;;;2.60;78.10;;;;;;9182379;19;20025;-72
2024/01/21 06:10:48;;;;;;;7.47;3.10;;;2.60;77.70;;;;;;9177335;19;20404;-75
2024/01/21 06:13:55;;;;;;;6.95;3.05;;;2.60;77.70;;;;;;9182639;19;20020;-72
2024/01/21 06:17:02;;;;;;;5.97;2.88;;;2.70;78.30;;;;;;9183973;19;20481;-72
2024/01/21 06:20:14;;;;;;;6.78;2.75;;;2.60;77.80;;;;;;9183537;19;20018;-71
2024/01/21 06:23:19;;;;;;;6.25;2.92;;;2.60;77.80;;;;;;9181075;19;20082;-72
2024/01/21 06:26:27;;;;;;;7.80;2.97;;;2.70;77.80;;;;;;9181901;19;20021;-73
2024/01/21 06:29:32;;;;;;;5.20;3.17;;;2.70;78.50;;;;;;9182694;19;20010;-73
2024/01/21 06:32:40;;;;;;;7.45;2.92;;;2.70;78.20;;;;;;9181644;19;20014;-72
2024/01/21 06:36:03;;;;;;;6.00;3.05;;;2.70;78.20;;;;;;9182506;19;20022;-72
2024/01/21 06:39:11;;;;;;;5.68;3.15;;;2.70;77.60;;;;;;9182869;19;20018;-72
2024/01/21 06:42:17;;;;;;;6.93;3.17;;;2.70;77.80;;;;;;9180386;19;20021;-71
2024/01/21 06:45:26;;;;;;;6.32;3.28;;;2.70;77.60;;;;;;9180018;19;20022;-72
2024/01/21 06:48:32;;;;;;;7.93;3.78;;;2.70;77.40;;;;;;9177818;19;20015;-71
2024/01/21 06:51:46;;;;;;;7.78;3.00;;;2.70;77.40;;;;;;9182225;19;20022;-71
2024/01/21 06:54:52;;;;;;;7.10;3.55;;;2.70;77.40;;;;;;9180799;19;20479;-70
2024/01/21 06:58:00;;;;;;;11.15;3.75;;;2.70;77.20;;;;;;9180516;19;20017;-71
2024/01/21 07:01:08;;;;;;;10.00;3.25;;;2.60;77.30;;;;;;9181406;19;20358;-71
2024/01/21 07:04:18;;;;;;;6.90;3.95;;;2.80;77.30;;;;;;9181779;19;20015;-71
2024/01/21 07:07:26;;;;;;;9.68;3.95;;;2.70;77.10;;;;;;9176365;19;20043;-70
2024/01/21 07:10:35;;;;;;;8.23;3.90;;;2.80;77.20;;;;;;9175168;19;20014;-71
2024/01/21 07:13:44;;;;;;;8.98;4.30;;;2.70;77.30;;;;;;9179833;19;20014;-71
2024/01/21 07:16:52;;;;;;;8.60;3.53;;;2.80;77.20;;;;;;9179379;19;20026;-72
2024/01/21 07:19:58;;;;;;;9.45;4.35;;;2.70;77.90;;;;;;9180961;19;20018;-71
2024/01/21 07:23:08;;;;;;;12.65;4.75;;;2.70;77.50;;;;;;9181041;19;20014;-71
2024/01/21 07:26:14;;;;;;;12.40;4.53;;;2.80;77.10;;;;;;9178409;19;20022;-70
2024/01/21 07:29:22;;;;;;;7.85;4.68;;;2.80;76.90;;;;;;9177923;19;20791;-71
2024/01/21 07:32:27;;;;;;;11.95;5.50;;;2.80;76.80;;;;;;9181168;19;20006;-70
2024/01/21 07:35:35;;;;;;;9.27;4.70;;;2.80;76.90;;;;;;9180854;19;20108;-70
2024/01/21 07:38:43;;;;;;;9.38;4.10;;;2.80;77.20;;;;;;9179142;19;20018;-72
2024/01/21 07:41:51;;;;;;;9.48;4.45;;;2.80;76.80;;;;;;9180555;19;20014;-71
2024/01/21 07:44:56;;;;;;;7.80;4.07;;;2.70;77.00;;;;;;9180435;19;20752;-71
2024/01/21 07:48:04;;;;;;;8.70;4.68;;;2.60;76.70;;;;;;9177858;19;20406;-72
2024/01/21 07:51:10;;;;;;;7.90;4.68;;;2.80;76.90;;;;;;9180033;19;20019;-72
2024/01/21 07:54:20;;;;;;;8.63;4.40;;;2.80;77.00;;;;;;9178233;19;20042;-71
2024/01/21 07:57:25;;;;;;;7.93;4.57;;;2.80;77.10;;;;;;9179197;19;20021;-72
2024/01/21 08:00:34;;;;;;;9.85;4.57;;;2.90;76.80;;;;;;9179544;19;20019;-71
2024/01/21 08:03:40;;;;;;;13.45;5.25;;;2.90;77.00;;;;;;9179318;19;20524;-71
2024/01/21 08:06:48;;;;;;;11.20;4.85;;;2.80;76.80;;;;;;9178040;19;20372;-71
2024/01/21 08:09:57;;;;;;;8.30;3.95;;;2.80;76.70;;;;;;9169133;19;20022;-71
2024/01/21 08:13:04;;;;;;;10.65;4.10;;;2.90;76.90;;;;;;9176847;19;20017;-72
2024/01/21 08:16:10;;;;;;;11.85;4.63;;;2.90;77.10;;;;;;9177519;19;20749;-72
2024/01/21 08:19:19;;;;;;;8.85;4.68;;;2.90;77.10;;;;;;9174741;19;20022;-71
2024/01/21 08:22:26;;;;;;;9.52;4.75;;;2.90;76.70;;;;;;9175861;19;20022;-70
2024/01/21 08:25:36;;;;;;;10.75;5.45;;;2.90;76.60;;;;;;9175434;19;20018;-70
2024/01/21 08:28:41;;;;;;;9.55;4.60;;;2.90;76.60;;;;;;9177475;19;20022;-70
2024/01/21 08:31:50;;;;;;;9.40;4.55;;;2.90;76.90;;;;;;9176417;19;20029;-70
2024/01/21 08:34:56;;;;;;;11.80;4.65;;;2.90;76.60;;;;;;9177071;19;20455;-72
2024/01/21 08:38:03;;;;;;;17.05;5.25;;;3.00;76.70;;;;;;9178500;19;20019;-71
2024/01/21 08:41:12;;;;;;;11.07;4.88;;;3.00;76.50;;;;;;9176977;19;20101;-71
2024/01/21 08:44:19;;;;;;;11.55;4.38;;;2.90;76.60;;;;;;9176234;19;20021;-70
2024/01/21 08:47:25;;;;;;;11.85;5.93;;;3.00;76.70;;;;;;9176070;19;20014;-72
2024/01/21 08:50:33;;;;;;;10.60;5.47;;;3.00;76.70;;;;;;9174984;19;20022;-73
2024/01/21 08:53:39;;;;;;;9.93;4.72;;;3.00;76.50;;;;;;9176512;19;20562;-71
2024/01/21 08:56:50;;;;;;;9.38;4.50;;;3.00;76.50;;;;;;9177051;19;20015;-71
2024/01/21 08:59:58;;;;;;;7.95;4.75;;;3.00;76.20;;;;;;9176506;19;20018;-71
2024/01/21 09:03:12;;;;;;;10.77;5.03;;;3.10;76.30;;;;;;9172640;19;20011;-71
2024/01/21 09:06:24;;;;;;;11.75;4.70;;;3.10;76.20;;;;;;9174117;19;20118;-70
2024/01/21 09:09:32;;;;;;;8.00;4.13;;;3.10;76.70;;;;;;9171540;19;20015;-71
2024/01/21 09:12:40;;;;;;;12.35;4.82;;;3.20;76.70;;;;;;9177502;19;20022;-72
2024/01/21 09:15:48;;;;;;;13.48;5.32;;;3.20;76.50;;;;;;9174156;19;20014;-71
2024/01/21 09:18:53;;;;;;;9.55;4.25;;;3.20;76.30;;;;;;9176135;19;20014;-71
2024/01/21 09:22:01;;;;;;;15.13;5.18;;;3.30;76.50;;;;;;9175566;19;20007;-73
2024/01/21 09:25:08;;;;;;;10.60;5.03;;;3.40;76.50;;;;;;9177142;19;20037;-72
2024/01/21 09:28:18;;;;;;;10.10;4.90;;;3.30;76.30;;;;;;9174457;19;20037;-73
2024/01/21 09:31:24;;;;;;;7.90;4.35;;;3.30;76.80;;;;;;9176070;19;20010;-72
2024/01/21 09:34:31;;;;;;;9.55;4.95;;;3.40;76.50;;;;;;9176241;19;20025;-71
2024/01/21 09:37:37;;;;;;;13.07;4.90;;;3.40;76.30;;;;;;9175681;19;20013;-72
2024/01/21 09:40:45;;;;;;;9.50;4.85;;;3.40;76.30;;;;;;9172647;19;20015;-72
2024/01/21 09:43:53;;;;;;;8.75;4.07;;;3.40;76.80;;;;;;9174045;19;20018;-72
2024/01/21 09:47:05;;;;;;;8.43;4.53;;;3.50;76.50;;;;;;9173514;19;20373;-72
2024/01/21 09:50:14;;;;;;;8.65;4.18;;;3.40;76.10;;;;;;9171671;19;20018;-72
2024/01/21 09:53:23;;;;;;;9.52;4.80;;;3.40;76.00;;;;;;9173878;19;20090;-72
2024/01/21 09:56:29;;;;;;;13.05;4.75;;;3.60;76.60;;;;;;9175098;19;20073;-72
2024/01/21 09:59:40;;;;;;;8.90;4.47;;;3.60;76.50;;;;;;9175244;19;20026;-72
2024/01/21 10:02:46;;;;;;;9.63;5.00;;;3.60;76.30;;;;;;9174873;19;20019;-72
2024/01/21 10:05:54;;;;;;;10.35;4.85;;;3.70;76.70;;;;;;9174634;19;20093;-73
2024/01/21 10:09:13;;;;;;;9.27;4.57;;;3.70;76.20;;;;;;9169141;19;20035;-72
2024/01/21 10:12:21;;;;;;;9.13;4.45;;;3.80;76.40;;;;;;9171219;19;20021;-69
2024/01/21 10:15:36;;;;;;;10.23;4.68;;;3.80;76.30;;;;;;9170115;19;20011;-70
2024/01/21 10:18:49;;;;;;;11.40;4.93;;;3.80;76.50;;;;;;9172968;19;20029;-71
2024/01/21 10:22:08;;;;;;;12.57;4.90;;;3.80;76.20;;;;;;9173497;19;20464;-71
2024/01/21 10:25:16;;;;;;;10.57;5.10;;;3.90;76.20;;;;;;9173785;19;20492;-70
2024/01/21 10:28:22;;;;;;;9.55;4.45;;;3.90;76.30;;;;;;9169740;19;20022;-69
2024/01/21 10:31:35;;;;;;;10.38;5.00;;;4.00;76.80;;;;;;9167979;19;20026;-70
2024/01/21 10:34:44;;;;;;;11.10;4.95;;;4.00;76.40;;;;;;9175144;19;20369;-70
2024/01/21 10:37:52;;;;;;;9.68;4.20;;;4.00;76.00;;;;;;9178390;19;20014;-70
2024/01/21 10:40:57;;;;;;;8.48;4.07;;;4.00;76.50;;;;;;9179670;19;20658;-70
2024/01/21 10:44:06;;;;;;;8.80;4.47;;;4.00;76.40;;;;;;9178939;19;20025;-70
2024/01/21 10:47:15;;;;;;;9.25;4.13;;;4.00;76.40;;;;;;9175573;19;20014;-70
2024/01/21 10:50:24;;;;;;;8.05;4.20;;;4.10;76.30;;;;;;9180127;19;20030;-70
2024/01/21 10:53:32;;;;;;;6.93;4.18;;;4.10;76.60;;;;;;9177702;19;20060;-70
2024/01/21 10:56:40;;;;;;;7.90;4.07;;;4.10;76.60;;;;;;9177912;19;20346;-70
2024/01/21 10:59:47;;;;;;;9.13;4.28;;;4.10;76.10;;;;;;9179786;19;20038;-69
2024/01/21 11:03:27;;;;;;;8.45;4.25;;;4.30;76.30;;;;;;9174734;19;20046;-70
2024/01/21 11:06:36;;;;;;;8.75;4.60;;;4.20;75.90;;;;;;9177522;19;20014;-70
2024/01/21 11:09:45;;;;;;;11.75;4.97;;;4.20;76.60;;;;;;9176031;19;20491;-69
2024/01/21 11:12:58;;;;;;;9.55;4.88;;;4.20;76.50;;;;;;9181190;19;20030;-69
2024/01/21 11:16:08;;;;;;;7.82;4.15;;;4.30;76.70;;;;;;9176034;19;20019;-72
2024/01/21 11:19:21;;;;;;;8.70;4.18;;;4.30;76.80;;;;;;9180727;19;20074;-68
2024/01/21 11:22:30;;;;;;;8.60;4.38;;;4.30;76.70;;;;;;9178130;19;20152;-69
2024/01/21 11:25:36;;;;;;;12.50;4.65;;;4.30;76.70;;;;;;9180056;19;20765;-70
2024/01/21 11:28:44;;;;;;;9.32;4.28;;;4.40;77.10;;;;;;9178414;19;20484;-67
2024/01/21 11:31:51;;;;;;;10.32;4.15;;;4.40;76.60;;;;;;9176297;19;20480;-69
2024/01/21 11:35:09;;;;;;;10.90;4.75;;;4.30;76.90;;;;;;9178634;19;20712;-70
2024/01/21 11:38:15;;;;;;;8.80;4.07;;;4.40;76.60;;;;;;9174074;19;20014;-70
2024/01/21 11:41:31;;;;;;;13.88;5.78;;;4.40;76.80;;;;;;9173758;19;20015;-71
2024/01/21 11:44:37;;;;;;;10.45;4.38;;;4.50;76.90;;;;;;9177356;19;20086;-69
2024/01/21 11:47:47;;;;;;;7.68;4.38;;;4.70;77.30;;;;;;9179108;19;20025;-68
2024/01/21 11:50:55;;;;;;;12.00;4.85;;;4.50;77.00;;;;;;9178631;19;20020;-69
2024/01/21 11:54:02;;;;;;;10.45;4.20;;;4.60;77.70;;;;;;9178970;19;20373;-69
2024/01/21 11:57:08;;;;;;;9.45;4.70;;;4.60;77.00;;;;;;9177169;19;20040;-69
2024/01/21 12:00:17;;;;;;;7.30;4.00;;;4.60;77.10;;;;;;9174550;19;20014;-69
2024/01/21 12:03:23;;;;;;;11.40;4.75;;;4.60;77.10;;;;;;9177297;19;20468;-70
2024/01/21 12:06:34;;;;;;;7.93;3.95;;;4.70;77.20;;;;;;9179019;19;20022;-68
2024/01/21 12:09:41;;;;;;;10.45;4.53;;;4.70;77.40;;;;;;9174507;19;20583;-69
2024/01/21 12:12:49;;;;;;;8.88;4.35;;;4.70;77.30;;;;;;9178610;19;20018;-71
2024/01/21 12:15:55;;;;;;;9.20;4.53;;;4.70;77.60;;;;;;9178345;19;20021;-68
2024/01/21 12:19:06;;;;;;;11.02;4.70;;;4.70;77.20;;;;;;9178003;19;20578;-67
2024/01/21 12:22:14;;;;;;;9.73;4.60;;;4.80;77.40;;;;;;9177859;19;20011;-69
2024/01/21 12:25:22;;;;;;;8.30;3.75;;;4.80;77.40;;;;;;9176080;19;20412;-70
2024/01/21 12:28:28;;;;;;;11.75;4.75;;;4.80;78.00;;;;;;9178541;19;20066;-69
2024/01/21 12:31:39;;;;;;;7.60;4.25;;;4.90;78.00;;;;;;9177076;19;20019;-78
2024/01/21 12:34:45;;;;;;;10.88;5.20;;;5.20;77.80;;;;;;9176531;19;20019;-75
2024/01/21 12:37:55;;;;;;;6.95;4.32;;;4.80;78.00;;;;;;9178813;19;20019;-79
2024/01/21 12:41:01;;;;;;;8.73;4.30;;;4.80;78.00;;;;;;9177532;19;20676;-78
2024/01/21 12:44:09;;;;;;;10.32;4.63;;;4.90;77.70;;;;;;9177147;19;20019;-78
2024/01/21 12:47:15;;;;;;;8.23;4.80;;;4.90;78.80;;;;;;9176360;19;20078;-75
2024/01/21 12:50:24;;;;;;;10.73;5.07;;;4.90;78.50;;;;;;9178251;19;20021;-77
2024/01/21 12:53:32;;;;;;;9.30;4.50;;;5.00;78.70;;;;;;9178618;19;20484;-78
2024/01/21 12:56:40;;;;;;;13.88;4.75;;;4.90;78.80;;;;;;9174164;19;20022;-77
2024/01/21 12:59:46;;;;;;;8.27;4.53;;;5.00;78.60;;;;;;9177629;19;20015;-76
2024/01/21 13:02:53;;;;;;;10.35;5.25;;;5.00;78.80;;;;;;9176784;19;20010;-79
2024/01/21 13:06:00;;;;;;;7.93;4.43;;;5.00;78.60;;;;;;9177256;19;20438;-79
2024/01/21 13:09:11;;;;;;;7.82;4.70;;;5.10;79.10;;;;;;9172182;19;20029;-77
2024/01/21 13:12:16;;;;;;;10.90;4.97;;;5.00;79.00;;;;;;9174452;19;20010;-77
2024/01/21 13:15:24;;;;;;;9.35;4.72;;;5.10;79.20;;;;;;9176498;19;20385;-75
2024/01/21 13:18:31;;;;;;;9.20;4.90;;;5.10;79.40;;;;;;9175099;19;20019;-78
2024/01/21 13:21:39;;;;;;;15.60;5.38;;;5.10;79.10;;;;;;9175602;19;20015;-78
2024/01/21 13:24:47;;;;;;;11.52;4.97;;;5.10;80.00;;;;;;9177067;19;20346;-77
2024/01/21 13:28:06;;;;;;;11.57;5.25;;;5.10;79.40;;;;;;9174670;19;20014;-77
2024/01/21 13:31:09;;;;;;;11.68;5.38;;;5.10;79.60;;;;;;9174055;19;20013;-80
2024/01/21 13:34:17;;;;;;;9.20;5.10;;;5.10;79.10;;;;;;9173694;19;20775;-78
2024/01/21 13:37:22;;;;;;;11.80;4.85;;;5.10;79.10;;;;;;9175760;19;20013;-78
2024/01/21 13:40:36;;;;;;;7.70;4.55;;;5.10;78.90;;;;;;9174091;19;20018;-73
2024/01/21 13:43:42;;;;;;;8.50;4.80;;;5.20;79.10;;;;;;9175220;19;20156;-72
2024/01/21 13:46:51;;;;;;;10.57;4.78;;;5.20;79.20;;;;;;9175637;19;20037;-72
2024/01/21 13:49:57;;;;;;;8.77;4.63;;;5.20;79.10;;;;;;9174059;19;20015;-71
2024/01/21 13:53:06;;;;;;;12.10;5.13;;;5.20;78.80;;;;;;9173013;19;20031;-71
2024/01/21 13:56:14;;;;;;;8.93;4.95;;;5.30;79.50;;;;;;9175170;19;20011;-72
2024/01/21 13:59:22;;;;;;;10.15;5.15;;;5.20;79.00;;;;;;9174313;19;20026;-75
2024/01/21 14:02:27;;;;;;;8.52;5.10;;;5.20;79.30;;;;;;9174765;19;20506;-71
2024/01/21 14:05:38;;;;;;;11.40;5.10;;;5.30;79.00;;;;;;9173495;19;20382;-72
2024/01/21 14:08:44;;;;;;;11.63;5.00;;;5.30;79.20;;;;;;9173030;19;20014;-71
2024/01/21 14:11:54;;;;;;;10.43;5.28;;;5.40;78.90;;;;;;9176103;19;20018;-70
2024/01/21 14:15:00;;;;;;;9.48;5.20;;;5.30;78.90;;;;;;9180229;19;20026;-71
2024/01/21 14:18:08;;;;;;;10.52;5.70;;;5.40;78.80;;;;;;9183712;19;20461;-72
2024/01/21 14:21:15;;;;;;;11.07;4.43;;;5.40;79.00;;;;;;9181286;19;20585;-72
2024/01/21 14:24:28;;;;;;;10.75;5.25;;;5.50;79.00;;;;;;9183059;19;20022;-72
2024/01/21 14:27:36;;;;;;;10.40;5.43;;;5.50;79.30;;;;;;9182415;19;20376;-73
2024/01/21 14:30:44;;;;;;;13.75;5.55;;;5.40;79.00;;;;;;9181477;19;20022;-71
2024/01/21 14:33:49;;;;;;;10.73;4.53;;;5.50;79.50;;;;;;9179241;19;20018;-72
2024/01/21 14:36:57;;;;;;;8.43;4.57;;;5.50;79.60;;;;;;9183028;19;20030;-71
2024/01/21 14:40:02;;;;;;;13.18;5.82;;;5.50;79.80;;;;;;9181490;19;20578;-71
2024/01/21 14:43:13;;;;;;;9.05;4.70;;;5.60;79.80;;;;;;9181417;19;20018;-72
2024/01/21 14:46:18;;;;;;;10.65;5.32;;;5.60;79.50;;;;;;9182342;19;20019;-71
2024/01/21 14:49:26;;;;;;;10.93;5.28;;;5.60;79.80;;;;;;9177511;19;20488;-75
2024/01/21 14:52:32;;;;;;;10.75;5.68;;;5.60;80.10;;;;;;9180298;19;20025;-68
2024/01/21 14:55:39;;;;;;;14.65;5.72;;;5.60;79.90;;;;;;9181829;19;20019;-68
2024/01/21 14:58:50;;;;;;;10.73;5.13;;;5.60;79.60;;;;;;9178948;19;20017;-70
2024/01/21 15:01:59;;;;;;;15.57;5.55;;;5.60;80.10;;;;;;9181172;19;20015;-68
2024/01/21 15:05:04;;;;;;;10.57;5.22;;;5.60;79.90;;;;;;9180931;19;20015;-68
2024/01/21 15:08:12;;;;;;;11.10;4.90;;;5.80;80.70;;;;;;9175967;19;20360;-68
2024/01/21 15:11:18;;;;;;;12.82;5.30;;;5.70;80.00;;;;;;9177515;19;20029;-68
2024/01/21 15:14:32;;;;;;;10.18;5.47;;;5.60;79.90;;;;;;9176237;19;20019;-68
2024/01/21 15:17:37;;;;;;;9.07;4.90;;;5.70;80.00;;;;;;9181121;19;20017;-69
2024/01/21 15:20:45;;;;;;;16.23;4.80;;;5.70;80.50;;;;;;9179631;19;20357;-69
2024/01/21 15:23:51;;;;;;;9.32;4.78;;;5.60;80.10;;;;;;9177004;19;20471;-68
2024/01/21 15:26:59;;;;;;;9.35;4.90;;;5.70;80.10;;;;;;9181057;19;20045;-69
2024/01/21 15:30:09;;;;;;;8.55;4.78;;;5.70;80.40;;;;;;9179299;19;20022;-68
2024/01/21 15:33:17;;;;;;;13.20;5.53;;;5.70;80.50;;;;;;9177485;19;20360;-70
2024/01/21 15:36:23;;;;;;;17.70;4.97;;;5.70;80.30;;;;;;9179025;19;20025;-68
2024/01/21 15:39:30;;;;;;;25.10;7.60;;;5.70;80.40;;;;;;9179499;19;20029;-69
2024/01/21 15:42:36;;;;;;;13.52;5.43;;;5.70;80.90;;;;;;9178908;19;20611;-69
2024/01/21 15:45:46;;;;;;;10.32;5.10;;;5.80;80.50;;;;;;9177054;19;20010;-69
2024/01/21 15:48:52;;;;;;;15.82;5.78;;;5.80;80.70;;;;;;9178133;19;20006;-69
2024/01/21 15:52:00;;;;;;;18.65;5.57;;;5.70;81.10;;;;;;9178411;19;20026;-70
2024/01/21 15:55:07;;;;;;;9.35;5.18;;;5.90;81.10;;;;;;9179345;19;20014;-68
2024/01/21 15:58:14;;;;;;;15.32;5.43;;;5.80;80.60;;;;;;9179585;19;20014;-72
2024/01/21 16:01:23;;;;;;;6.93;4.55;;;5.80;80.50;;;;;;9179197;19;20015;-73
2024/01/21 16:04:30;;;;;;;9.32;4.60;;;5.80;81.10;;;;;;9175790;19;20019;-73
2024/01/21 16:07:36;;;;;;;13.07;5.60;;;5.80;80.90;;;;;;9177540;19;20022;-72
2024/01/21 16:10:45;;;;;;;13.70;4.90;;;5.80;80.60;;;;;;9173404;19;20029;-72
2024/01/21 16:13:53;;;;;;;8.88;5.38;;;5.70;81.00;;;;;;9176671;19;20017;-72
2024/01/21 16:17:04;;;;;;;14.07;5.00;;;5.80;81.20;;;;;;9178988;19;20023;-72
2024/01/21 16:20:10;;;;;;;11.75;5.40;;;5.80;81.20;;;;;;9177698;19;20014;-72
2024/01/21 16:23:20;;;;;;;9.73;5.18;;;5.80;81.00;;;;;;9176009;19;20369;-71
2024/01/21 16:26:27;;;;;;;12.00;5.22;;;5.80;81.00;;;;;;9177514;19;20358;-71